Time;durP1;ratioP1;P1;durP2;ratioP2;P2;SDS_P1;SDS_P2;PMS_P1;PMS_P2;Temp;Humidity;BMP_temperature;BMP_pressure;BME280_temperature;BME280_humidity;BME280_pressure;Samples;Min_cycle;Max_cycle;Signal;HPM_P1;HPM_P2
2023/09/20 00:00:35;;;;;;;1.20;0.80;;;;;;;;;;5025372;28;20364;-79
2023/09/20 00:03:00;;;;;;;2.17;0.85;;;;;;;;;;5020895;28;20468;-81
2023/09/20 00:05:26;;;;;;;1.63;0.80;;;;;;;;;;5028321;28;20495;-82
2023/09/20 00:07:56;;;;;;;2.17;0.90;;;;;;;;;;5031025;28;20021;-81
2023/09/20 00:10:22;;;;;;;2.22;0.93;;;;;;;;;;5025010;28;20057;-81
2023/09/20 00:12:48;;;;;;;2.72;0.80;;;;;;;;;;5021197;28;20030;-80
2023/09/20 00:15:14;;;;;;;1.17;0.85;;;;;;;;;;5016134;28;20040;-82
2023/09/20 00:17:40;;;;;;;1.65;0.90;;;;;;;;;;5020540;28;20053;-81
2023/09/20 00:20:13;;;;;;;2.28;0.90;;;;;;;;;;5018334;28;20467;-81
2023/09/20 00:22:45;;;;;;;1.23;0.82;;;;;;;;;;5021577;28;20034;-83
2023/09/20 00:25:13;;;;;;;3.03;0.80;;;;;;;;;;5029948;28;20056;-80
2023/09/20 00:27:39;;;;;;;1.63;1.00;;;;;;;;;;5045168;28;20037;-80
2023/09/20 00:30:10;;;;;;;4.32;1.10;;;;;;;;;;5035254;28;20029;-80
2023/09/20 00:32:40;;;;;;;2.13;1.10;;;;;;;;;;5043906;28;20032;-80
2023/09/20 00:35:10;;;;;;;2.67;0.90;;;;;;;;;;5023189;28;20033;-81
2023/09/20 00:37:40;;;;;;;0.95;0.77;;;;;;;;;;5023417;28;20025;-80
2023/09/20 00:40:18;;;;;;;1.70;0.90;;;;;;;;;;5036251;28;20049;-80
2023/09/20 00:42:45;;;;;;;1.20;0.77;;;;;;;;;;5034513;28;20026;-80
2023/09/20 00:45:13;;;;;;;4.03;1.00;;;;;;;;;;5026329;28;20040;-79
2023/09/20 00:47:40;;;;;;;1.10;0.90;;;;;;;;;;5031921;28;20359;-80
2023/09/20 00:50:13;;;;;;;1.67;0.90;;;;;;;;;;5026706;28;20048;-81
2023/09/20 00:52:43;;;;;;;1.10;0.90;;;;;;;;;;5027494;28;20030;-82
2023/09/20 00:55:18;;;;;;;1.55;0.90;;;;;;;;;;5028852;28;20037;-80
2023/09/20 00:58:17;;;;;;;1.60;0.80;;;;;;;;;;5018253;28;20033;-80
2023/09/20 01:00:52;;;;;;;1.15;0.90;;;;;;;;;;5020284;28;20068;-82
2023/09/20 01:03:18;;;;;;;6.00;0.85;;;;;;;;;;5035210;28;20057;-81
2023/09/20 01:05:47;;;;;;;1.30;1.00;;;;;;;;;;5035566;28;20033;-80
2023/09/20 01:08:13;;;;;;;1.42;0.88;;;;;;;;;;5034545;28;20021;-79
2023/09/20 01:10:38;;;;;;;6.82;0.98;;;;;;;;;;5023939;28;20048;-80
2023/09/20 01:13:05;;;;;;;0.80;0.80;;;;;;;;;;5018639;28;20018;-80
2023/09/20 01:15:33;;;;;;;3.15;1.30;;;;;;;;;;5030965;28;20049;-81
2023/09/20 01:17:59;;;;;;;1.13;0.90;;;;;;;;;;5022675;28;20029;-79
2023/09/20 01:20:27;;;;;;;2.97;0.70;;;;;;;;;;5018790;28;20487;-80
2023/09/20 01:22:56;;;;;;;2.13;0.90;;;;;;;;;;5018142;28;20472;-79
2023/09/20 01:25:27;;;;;;;1.23;0.98;;;;;;;;;;5028279;28;20077;-80
2023/09/20 01:27:57;;;;;;;1.75;1.00;;;;;;;;;;5028464;28;20105;-79
2023/09/20 01:30:27;;;;;;;2.20;1.00;;;;;;;;;;5020812;28;20036;-80
2023/09/20 01:33:01;;;;;;;4.22;0.80;;;;;;;;;;5015316;28;20036;-79
2023/09/20 01:35:29;;;;;;;2.00;0.80;;;;;;;;;;5015291;28;20034;-81
2023/09/20 01:37:55;;;;;;;1.20;0.90;;;;;;;;;;5021927;28;20112;-80
2023/09/20 01:40:25;;;;;;;2.00;0.90;;;;;;;;;;5028214;28;20053;-82
2023/09/20 01:42:57;;;;;;;1.38;0.85;;;;;;;;;;5017799;28;20022;-81
2023/09/20 01:45:23;;;;;;;3.25;1.08;;;;;;;;;;5032947;28;20040;-82
2023/09/20 01:47:50;;;;;;;1.38;0.82;;;;;;;;;;5027310;28;20021;-80
2023/09/20 01:50:20;;;;;;;2.17;0.90;;;;;;;;;;5023259;28;20135;-82
2023/09/20 01:52:51;;;;;;;2.58;1.00;;;;;;;;;;5003600;28;20510;-81
2023/09/20 01:55:18;;;;;;;1.75;0.90;;;;;;;;;;5049325;23;20053;-81
2023/09/20 01:57:47;;;;;;;2.97;0.90;;;;;;;;;;5044561;28;20064;-81
2023/09/20 02:00:25;;;;;;;1.80;0.90;;;;;;;;;;5039049;28;20386;-80
2023/09/20 02:02:54;;;;;;;1.45;1.00;;;;;;;;;;5036101;28;20044;-81
2023/09/20 02:05:20;;;;;;;1.80;0.90;;;;;;;;;;5051952;28;20029;-80
2023/09/20 02:07:50;;;;;;;1.25;1.00;;;;;;;;;;5050101;28;20033;-81
2023/09/20 02:10:16;;;;;;;2.45;0.80;;;;;;;;;;5047610;28;20531;-80
2023/09/20 02:12:46;;;;;;;2.47;0.90;;;;;;;;;;5045162;28;20022;-81
2023/09/20 02:15:13;;;;;;;1.88;0.90;;;;;;;;;;5050176;28;20429;-81
2023/09/20 02:17:39;;;;;;;1.83;1.00;;;;;;;;;;5043152;28;20021;-80
2023/09/20 02:20:09;;;;;;;3.53;1.00;;;;;;;;;;5038427;28;20116;-80
2023/09/20 02:22:36;;;;;;;2.15;0.90;;;;;;;;;;5034370;28;20037;-80
2023/09/20 02:25:05;;;;;;;3.65;1.00;;;;;;;;;;5049830;28;20027;-79
2023/09/20 02:27:31;;;;;;;1.20;1.00;;;;;;;;;;5047763;28;20068;-79
2023/09/20 02:29:57;;;;;;;2.15;0.93;;;;;;;;;;5048159;28;20205;-79
2023/09/20 02:32:23;;;;;;;1.92;1.05;;;;;;;;;;5032831;28;20036;-79
2023/09/20 02:34:49;;;;;;;3.58;1.10;;;;;;;;;;5048130;28;20521;-80
2023/09/20 02:37:15;;;;;;;1.38;0.80;;;;;;;;;;5044595;28;20044;-81
2023/09/20 02:39:40;;;;;;;3.40;1.02;;;;;;;;;;5040115;28;20029;-80
2023/09/20 02:42:07;;;;;;;4.95;1.00;;;;;;;;;;5034063;28;20029;-80
2023/09/20 02:44:32;;;;;;;1.27;1.00;;;;;;;;;;5048998;28;20032;-79
2023/09/20 02:46:59;;;;;;;2.30;0.93;;;;;;;;;;5035173;28;20063;-80
2023/09/20 02:49:24;;;;;;;2.75;1.02;;;;;;;;;;5047470;28;20036;-80
2023/09/20 02:51:52;;;;;;;3.13;1.10;;;;;;;;;;5045506;28;20025;-80
2023/09/20 02:54:19;;;;;;;1.20;1.00;;;;;;;;;;5048545;28;20029;-80
2023/09/20 02:56:44;;;;;;;2.63;0.93;;;;;;;;;;5044033;28;20108;-80
2023/09/20 02:59:10;;;;;;;1.23;1.00;;;;;;;;;;5040832;28;20491;-81
2023/09/20 03:01:36;;;;;;;1.73;1.05;;;;;;;;;;5034478;28;20036;-79
2023/09/20 03:04:03;;;;;;;1.45;1.00;;;;;;;;;;5048574;28;20048;-80
2023/09/20 03:06:29;;;;;;;3.33;1.15;;;;;;;;;;5050917;28;20029;-79
2023/09/20 03:08:56;;;;;;;1.38;1.00;;;;;;;;;;5031046;28;20386;-79
2023/09/20 03:11:24;;;;;;;1.55;0.90;;;;;;;;;;5050265;28;20025;-79
2023/09/20 03:13:50;;;;;;;3.42;1.10;;;;;;;;;;5047402;28;20033;-80
2023/09/20 03:16:18;;;;;;;1.92;0.88;;;;;;;;;;5043812;28;20540;-80
2023/09/20 03:18:45;;;;;;;1.95;0.98;;;;;;;;;;5039563;28;20115;-81
2023/09/20 03:21:11;;;;;;;2.78;0.90;;;;;;;;;;5037099;28;20433;-80
2023/09/20 03:23:38;;;;;;;1.33;1.00;;;;;;;;;;5054152;28;20032;-79
2023/09/20 03:26:05;;;;;;;0.90;0.90;;;;;;;;;;5054838;28;20028;-79
2023/09/20 03:28:35;;;;;;;2.63;1.02;;;;;;;;;;5035447;28;20029;-80
2023/09/20 03:31:06;;;;;;;2.65;1.48;;;;;;;;;;5053506;28;20104;-80
2023/09/20 03:33:32;;;;;;;3.22;0.93;;;;;;;;;;5050277;28;20033;-80
2023/09/20 03:36:04;;;;;;;2.13;0.93;;;;;;;;;;5052668;28;20033;-80
2023/09/20 03:38:29;;;;;;;2.63;1.00;;;;;;;;;;5042258;28;20367;-80
2023/09/20 03:40:55;;;;;;;1.45;0.85;;;;;;;;;;5040741;28;20552;-80
2023/09/20 03:43:21;;;;;;;2.40;1.00;;;;;;;;;;5054015;28;20087;-79
2023/09/20 03:45:51;;;;;;;1.65;1.10;;;;;;;;;;5053341;28;20088;-79
2023/09/20 03:48:16;;;;;;;1.75;1.10;;;;;;;;;;5054558;28;20040;-79
2023/09/20 03:50:43;;;;;;;1.65;1.00;;;;;;;;;;5054016;28;20071;-79
2023/09/20 03:53:09;;;;;;;3.33;0.90;;;;;;;;;;5054279;28;20120;-79
2023/09/20 03:55:35;;;;;;;1.73;0.90;;;;;;;;;;5048740;28;20044;-80
2023/09/20 03:58:03;;;;;;;2.03;1.00;;;;;;;;;;5043738;28;20060;-80
2023/09/20 04:00:31;;;;;;;1.80;0.90;;;;;;;;;;5041210;28;20048;-80
2023/09/20 04:02:58;;;;;;;1.98;0.88;;;;;;;;;;5047142;28;20025;-79
2023/09/20 04:05:25;;;;;;;3.65;1.10;;;;;;;;;;5046017;28;20042;-80
2023/09/20 04:07:50;;;;;;;2.50;1.08;;;;;;;;;;5051246;28;20025;-79
2023/09/20 04:10:17;;;;;;;0.95;0.90;;;;;;;;;;5052731;28;20289;-78
2023/09/20 04:12:49;;;;;;;3.92;1.30;;;;;;;;;;5052687;28;20047;-79
2023/09/20 04:15:15;;;;;;;1.58;0.90;;;;;;;;;;5048841;28;20029;-79
2023/09/20 04:17:41;;;;;;;1.25;1.00;;;;;;;;;;5027683;28;20029;-79
2023/09/20 04:20:07;;;;;;;1.00;0.80;;;;;;;;;;5041418;28;20031;-80
2023/09/20 04:22:37;;;;;;;4.22;1.20;;;;;;;;;;5046723;28;20021;-80
2023/09/20 04:25:05;;;;;;;4.18;1.00;;;;;;;;;;5047703;28;20033;-79
2023/09/20 04:27:32;;;;;;;2.85;1.00;;;;;;;;;;5047753;28;20025;-80
2023/09/20 04:29:58;;;;;;;3.35;0.82;;;;;;;;;;5034235;28;20025;-79
2023/09/20 04:32:24;;;;;;;1.90;0.90;;;;;;;;;;5035452;28;20544;-80
2023/09/20 04:34:53;;;;;;;3.50;1.05;;;;;;;;;;5047562;28;20485;-80
2023/09/20 04:37:20;;;;;;;1.58;1.00;;;;;;;;;;5052951;28;20021;-79
2023/09/20 04:39:46;;;;;;;1.33;0.95;;;;;;;;;;5052754;28;20076;-80
2023/09/20 04:42:13;;;;;;;2.70;0.90;;;;;;;;;;5047709;28;20025;-80
2023/09/20 04:44:39;;;;;;;2.20;1.00;;;;;;;;;;5053042;28;20028;-79
2023/09/20 04:47:04;;;;;;;3.05;0.90;;;;;;;;;;5044524;28;20040;-78
2023/09/20 04:49:30;;;;;;;2.95;1.00;;;;;;;;;;5035485;28;20051;-78
2023/09/20 04:52:00;;;;;;;2.17;1.13;;;;;;;;;;5053244;28;20047;-79
2023/09/20 04:54:27;;;;;;;2.13;1.00;;;;;;;;;;5049511;28;20032;-79
2023/09/20 04:56:53;;;;;;;6.82;0.95;;;;;;;;;;5045362;28;20043;-80
2023/09/20 04:59:19;;;;;;;1.20;0.80;;;;;;;;;;5044307;28;20437;-80
2023/09/20 05:01:49;;;;;;;1.17;0.95;;;;;;;;;;5052491;28;20024;-80
2023/09/20 05:04:15;;;;;;;0.95;0.85;;;;;;;;;;5047747;28;20052;-79
2023/09/20 05:06:42;;;;;;;4.18;1.15;;;;;;;;;;5050691;28;20056;-79
2023/09/20 05:09:08;;;;;;;1.48;1.13;;;;;;;;;;5044918;28;20065;-79
2023/09/20 05:11:34;;;;;;;2.33;1.10;;;;;;;;;;5052707;28;20033;-79
2023/09/20 05:14:00;;;;;;;3.35;1.20;;;;;;;;;;5048469;28;20132;-79
2023/09/20 05:16:26;;;;;;;1.88;1.17;;;;;;;;;;5044115;28;20029;-80
2023/09/20 05:18:52;;;;;;;2.13;0.90;;;;;;;;;;5041092;28;20031;-81
2023/09/20 05:21:18;;;;;;;2.58;0.90;;;;;;;;;;5043503;28;20024;-80
2023/09/20 05:23:44;;;;;;;1.45;0.95;;;;;;;;;;5046205;28;20037;-79
2023/09/20 05:26:10;;;;;;;4.32;1.08;;;;;;;;;;5040154;28;20028;-79
2023/09/20 05:28:36;;;;;;;1.98;0.98;;;;;;;;;;5050628;28;20029;-79
2023/09/20 05:31:03;;;;;;;1.30;0.90;;;;;;;;;;5050598;28;20032;-80
2023/09/20 05:33:30;;;;;;;1.33;1.10;;;;;;;;;;5048032;28;20559;-80
2023/09/20 05:35:57;;;;;;;2.47;0.80;;;;;;;;;;5045719;28;20045;-80
2023/09/20 05:38:24;;;;;;;1.20;1.00;;;;;;;;;;5042861;28;20036;-79
2023/09/20 05:40:50;;;;;;;4.00;0.98;;;;;;;;;;5043894;28;20037;-80
2023/09/20 05:43:16;;;;;;;2.28;0.90;;;;;;;;;;5049199;28;20075;-79
2023/09/20 05:45:42;;;;;;;1.50;1.10;;;;;;;;;;5042125;28;20041;-80
2023/09/20 05:48:10;;;;;;;4.78;1.05;;;;;;;;;;5037462;28;20112;-79
2023/09/20 05:50:36;;;;;;;2.22;1.00;;;;;;;;;;5046492;28;20174;-79
2023/09/20 05:53:04;;;;;;;3.92;1.10;;;;;;;;;;5048108;28;20029;-80
2023/09/20 05:55:32;;;;;;;1.58;0.90;;;;;;;;;;5038269;28;20382;-79
2023/09/20 05:57:58;;;;;;;2.67;0.90;;;;;;;;;;5042861;28;20033;-80
2023/09/20 06:00:23;;;;;;;2.95;1.10;;;;;;;;;;5025571;28;20043;-80
2023/09/20 06:02:53;;;;;;;1.67;1.00;;;;;;;;;;5048329;28;20355;-78
2023/09/20 06:05:19;;;;;;;2.08;1.10;;;;;;;;;;5044357;28;20379;-78
2023/09/20 06:07:44;;;;;;;5.05;1.00;;;;;;;;;;5041124;28;20028;-80
2023/09/20 06:10:11;;;;;;;1.33;1.00;;;;;;;;;;5044523;28;20033;-78
2023/09/20 06:12:37;;;;;;;2.53;1.10;;;;;;;;;;5048031;28;20061;-79
2023/09/20 06:15:04;;;;;;;2.03;1.00;;;;;;;;;;5047659;28;20064;-80
2023/09/20 06:17:32;;;;;;;4.30;1.17;;;;;;;;;;5045027;28;20028;-80
2023/09/20 06:19:58;;;;;;;4.32;1.25;;;;;;;;;;5042754;28;20025;-80
2023/09/20 06:22:30;;;;;;;3.30;1.30;;;;;;;;;;5054985;28;20021;-79
2023/09/20 06:24:59;;;;;;;5.18;1.17;;;;;;;;;;5047966;28;20748;-80
2023/09/20 06:27:25;;;;;;;2.53;0.90;;;;;;;;;;5038570;28;20136;-78
2023/09/20 06:29:51;;;;;;;1.13;0.93;;;;;;;;;;5034735;28;20029;-80
2023/09/20 06:32:17;;;;;;;1.98;0.93;;;;;;;;;;5050701;28;20468;-79
2023/09/20 06:34:42;;;;;;;2.78;0.93;;;;;;;;;;5032156;28;20044;-81
2023/09/20 06:37:09;;;;;;;1.88;1.13;;;;;;;;;;5046156;28;20030;-82
2023/09/20 06:39:35;;;;;;;1.20;0.90;;;;;;;;;;5043967;28;20128;-82
2023/09/20 06:42:01;;;;;;;1.05;0.90;;;;;;;;;;5048469;28;20561;-81
2023/09/20 06:44:27;;;;;;;2.28;1.00;;;;;;;;;;5042131;28;20039;-79
2023/09/20 06:46:53;;;;;;;1.58;1.00;;;;;;;;;;5039703;28;20100;-81
2023/09/20 06:49:18;;;;;;;1.17;0.95;;;;;;;;;;5035351;28;20041;-80
2023/09/20 06:51:44;;;;;;;4.18;1.05;;;;;;;;;;5050248;28;20028;-80
2023/09/20 06:54:10;;;;;;;2.97;0.95;;;;;;;;;;5047080;28;20028;-84
2023/09/20 06:56:35;;;;;;;2.30;1.10;;;;;;;;;;5050142;28;20482;-82
2023/09/20 06:59:01;;;;;;;1.42;1.00;;;;;;;;;;5048635;28;20036;-82
2023/09/20 07:01:27;;;;;;;3.13;1.20;;;;;;;;;;5054103;28;20112;-81
2023/09/20 07:03:52;;;;;;;1.50;0.77;;;;;;;;;;5052805;28;20122;-80
2023/09/20 07:06:18;;;;;;;1.77;0.90;;;;;;;;;;5048361;28;20039;-81
2023/09/20 07:08:45;;;;;;;1.63;1.00;;;;;;;;;;5042513;28;20057;-82
2023/09/20 07:11:16;;;;;;;1.95;0.90;;;;;;;;;;5053908;28;20435;-83
2023/09/20 07:13:42;;;;;;;1.60;0.98;;;;;;;;;;5053580;28;20083;-82
2023/09/20 07:16:08;;;;;;;1.60;0.82;;;;;;;;;;5052278;28;20421;-82
2023/09/20 07:18:35;;;;;;;1.15;0.90;;;;;;;;;;5048425;28;20029;-82
2023/09/20 07:21:02;;;;;;;2.42;0.90;;;;;;;;;;5051170;28;20029;-81
2023/09/20 07:23:29;;;;;;;3.13;0.82;;;;;;;;;;5046958;28;20103;-81
2023/09/20 07:25:55;;;;;;;2.35;1.00;;;;;;;;;;5042373;28;20048;-82
2023/09/20 07:28:24;;;;;;;1.15;0.90;;;;;;;;;;5039585;28;20033;-81
2023/09/20 07:30:50;;;;;;;1.77;1.00;;;;;;;;;;5050138;28;20115;-82
2023/09/20 07:33:19;;;;;;;1.98;1.00;;;;;;;;;;5053032;28;20103;-83
2023/09/20 07:35:48;;;;;;;2.65;1.08;;;;;;;;;;5054297;28;20025;-84
2023/09/20 07:38:36;;;;;;;1.65;1.00;;;;;;;;;;5054916;28;20033;-82
2023/09/20 07:41:09;;;;;;;0.95;0.80;;;;;;;;;;5053391;28;20049;-83
2023/09/20 07:43:37;;;;;;;1.35;1.00;;;;;;;;;;5046662;28;20048;-83
2023/09/20 07:46:06;;;;;;;1.30;0.90;;;;;;;;;;5042168;28;20036;-82
2023/09/20 07:48:33;;;;;;;1.00;0.90;;;;;;;;;;5054152;28;20486;-83
2023/09/20 07:50:59;;;;;;;1.02;0.80;;;;;;;;;;5046209;28;20032;-82
2023/09/20 07:53:26;;;;;;;0.85;0.80;;;;;;;;;;5053349;28;20124;-82
2023/09/20 07:56:05;;;;;;;1.05;0.75;;;;;;;;;;5051502;28;20037;-82
2023/09/20 07:58:40;;;;;;;1.95;0.90;;;;;;;;;;5048545;28;20040;-82
2023/09/20 08:01:16;;;;;;;2.03;1.00;;;;;;;;;;5064028;28;20525;-82
2023/09/20 08:03:50;;;;;;;2.53;0.90;;;;;;;;;;5044260;28;20037;-82
2023/09/20 08:06:21;;;;;;;4.00;0.93;;;;;;;;;;5042723;28;20041;-82
2023/09/20 08:08:49;;;;;;;8.80;1.02;;;;;;;;;;5045240;28;20021;-82
2023/09/20 08:11:15;;;;;;;2.05;0.90;;;;;;;;;;5051913;28;20028;-82
2023/09/20 08:13:40;;;;;;;1.55;0.93;;;;;;;;;;5051044;28;20047;-82
2023/09/20 08:16:09;;;;;;;3.47;0.93;;;;;;;;;;5050584;28;20025;-83
2023/09/20 08:21:20;;;;;;;5.75;0.90;;;;;;;;;;5050550;28;20075;-83
2023/09/20 08:59:54;;;;;;;1.77;1.00;;;;;;;;;;5050946;28;20429;-83
2023/09/20 09:02:24;;;;;;;1.45;1.05;;;;;;;;;;5045717;28;20090;-82
2023/09/20 09:04:53;;;;;;;1.88;1.13;;;;;;;;;;5042949;28;20029;-82
2023/09/20 09:07:19;;;;;;;3.50;1.20;;;;;;;;;;5043156;28;20367;-82
2023/09/20 09:09:49;;;;;;;4.22;1.40;;;;;;;;;;5049365;28;20033;-82
2023/09/20 09:12:15;;;;;;;1.80;1.00;;;;;;;;;;5045130;28;20029;-82
2023/09/20 09:14:41;;;;;;;2.35;1.13;;;;;;;;;;5048493;28;20393;-83
2023/09/20 09:17:09;;;;;;;1.60;1.02;;;;;;;;;;5050555;28;20386;-82
2023/09/20 09:19:36;;;;;;;1.00;0.90;;;;;;;;;;5049061;28;20041;-82
2023/09/20 09:22:02;;;;;;;3.50;1.10;;;;;;;;;;5046098;28;20114;-82
2023/09/20 09:24:28;;;;;;;1.45;1.00;;;;;;;;;;5043256;28;20390;-82
2023/09/20 09:27:05;;;;;;;2.08;1.10;;;;;;;;;;5042937;28;20494;-83
2023/09/20 09:29:30;;;;;;;1.48;1.00;;;;;;;;;;5047725;28;20041;-83
2023/09/20 09:31:56;;;;;;;2.20;1.20;;;;;;;;;;5044746;28;20035;-83
2023/09/20 09:34:22;;;;;;;4.15;1.00;;;;;;;;;;5045276;28;20104;-83
2023/09/20 09:36:48;;;;;;;1.40;1.10;;;;;;;;;;5052267;28;20044;-84
2023/09/20 09:39:14;;;;;;;2.00;1.05;;;;;;;;;;5048503;28;20037;-83
2023/09/20 09:41:44;;;;;;;3.85;1.20;;;;;;;;;;5050356;28;20037;-83
2023/09/20 09:44:11;;;;;;;1.92;1.17;;;;;;;;;;5046352;28;20129;-83
2023/09/20 09:46:41;;;;;;;3.22;1.25;;;;;;;;;;5048043;28;20036;-83
2023/09/20 09:49:11;;;;;;;1.73;1.10;;;;;;;;;;5042138;28;20040;-83
2023/09/20 09:51:51;;;;;;;1.95;1.00;;;;;;;;;;5036286;28;20167;-83
2023/09/20 09:54:21;;;;;;;1.33;0.88;;;;;;;;;;5051442;28;20044;-83
2023/09/20 09:56:49;;;;;;;2.40;1.10;;;;;;;;;;5050512;28;20033;-83
2023/09/20 09:59:15;;;;;;;2.28;1.00;;;;;;;;;;5047703;28;20056;-83
2023/09/20 10:01:42;;;;;;;1.52;0.90;;;;;;;;;;5051562;28;20042;-83
2023/09/20 10:04:13;;;;;;;5.68;1.15;;;;;;;;;;5045788;28;20041;-83
2023/09/20 10:06:47;;;;;;;1.90;0.95;;;;;;;;;;5040484;28;20040;-83
2023/09/20 10:09:17;;;;;;;2.10;1.00;;;;;;;;;;5042579;28;20037;-83
2023/09/20 10:11:43;;;;;;;1.25;0.95;;;;;;;;;;5046465;28;20036;-82
2023/09/20 10:14:10;;;;;;;4.82;1.20;;;;;;;;;;5051064;28;20040;-83
2023/09/20 10:16:42;;;;;;;1.65;1.10;;;;;;;;;;5048871;28;20124;-83
2023/09/20 10:19:15;;;;;;;1.50;0.88;;;;;;;;;;5050840;28;20120;-84
2023/09/20 10:22:08;;;;;;;2.78;1.02;;;;;;;;;;5044683;28;20044;-83
2023/09/20 10:24:46;;;;;;;1.30;0.98;;;;;;;;;;5041597;28;20415;-84
2023/09/20 10:27:17;;;;;;;2.35;1.00;;;;;;;;;;5047110;28;20044;-83
2023/09/20 10:30:00;;;;;;;4.38;1.30;;;;;;;;;;5043953;28;20048;-83
2023/09/20 10:32:32;;;;;;;1.40;1.10;;;;;;;;;;5040824;28;20033;-83
2023/09/20 10:35:18;;;;;;;2.53;1.00;;;;;;;;;;5048798;28;20107;-83
2023/09/20 10:38:09;;;;;;;1.90;0.85;;;;;;;;;;5045829;28;20056;-83
2023/09/20 10:40:44;;;;;;;2.30;1.10;;;;;;;;;;5045022;28;20094;-84
2023/09/20 10:43:09;;;;;;;2.47;1.10;;;;;;;;;;5046801;28;20416;-83
2023/09/20 10:45:35;;;;;;;2.40;1.08;;;;;;;;;;5045776;28;20033;-84
2023/09/20 10:48:05;;;;;;;2.88;0.90;;;;;;;;;;5039736;28;20065;-84
2023/09/20 10:50:57;;;;;;;5.20;1.20;;;;;;;;;;5037214;28;20052;-84
2023/09/20 10:53:50;;;;;;;1.88;1.00;;;;;;;;;;5049931;28;20041;-84
2023/09/20 10:56:41;;;;;;;1.40;1.00;;;;;;;;;;5048298;28;20041;-84
2023/09/20 10:59:09;;;;;;;2.80;1.10;;;;;;;;;;5047448;28;20033;-84
2023/09/20 11:01:35;;;;;;;1.75;1.00;;;;;;;;;;5047263;28;20128;-83
2023/09/20 11:04:05;;;;;;;2.17;1.10;;;;;;;;;;5041474;28;20485;-83
2023/09/20 11:06:31;;;;;;;2.30;0.88;;;;;;;;;;5038114;28;20087;-83
2023/09/20 11:08:57;;;;;;;1.48;0.90;;;;;;;;;;5049708;28;20042;-83
2023/09/20 11:11:23;;;;;;;1.58;0.80;;;;;;;;;;5045976;28;20383;-84
2023/09/20 11:13:49;;;;;;;2.65;0.90;;;;;;;;;;5051306;28;20056;-84
2023/09/20 11:16:19;;;;;;;3.15;1.45;;;;;;;;;;5049043;28;20568;-84
2023/09/20 11:18:45;;;;;;;3.60;3.00;;;;;;;;;;5046627;28;20033;-85
2023/09/20 11:21:11;;;;;;;8.43;5.75;;;;;;;;;;5049140;28;20033;-84
2023/09/20 11:23:37;;;;;;;9.90;6.97;;;;;;;;;;5049508;28;20037;-84
2023/09/20 11:26:04;;;;;;;5.60;4.45;;;;;;;;;;5048598;28;20022;-83
2023/09/20 11:28:32;;;;;;;4.47;2.50;;;;;;;;;;5043852;28;20037;-83
2023/09/20 11:31:03;;;;;;;3.40;1.20;;;;;;;;;;5040301;28;20037;-84
2023/09/20 11:33:29;;;;;;;1.75;1.00;;;;;;;;;;5051099;28;20063;-83
2023/09/20 11:35:54;;;;;;;3.30;1.20;;;;;;;;;;5045340;28;20051;-83
2023/09/20 11:38:21;;;;;;;2.88;1.17;;;;;;;;;;5045599;28;20566;-83
2023/09/20 11:40:47;;;;;;;6.28;3.40;;;;;;;;;;5045190;28;20079;-84
2023/09/20 11:43:20;;;;;;;4.05;1.10;;;;;;;;;;5051147;28;20462;-84
2023/09/20 11:45:53;;;;;;;5.97;2.33;;;;;;;;;;5047064;28;20095;-83
2023/09/20 11:48:22;;;;;;;8.30;5.88;;;;;;;;;;5039507;28;20430;-83
2023/09/20 11:50:48;;;;;;;4.70;1.67;;;;;;;;;;5053408;28;20043;-84
2023/09/20 11:53:18;;;;;;;9.10;3.25;;;;;;;;;;5049666;28;20076;-83
2023/09/20 11:55:45;;;;;;;2.25;1.02;;;;;;;;;;5051485;28;20403;-83
2023/09/20 11:58:11;;;;;;;2.60;1.20;;;;;;;;;;5052099;28;20037;-83
2023/09/20 12:00:36;;;;;;;4.18;1.20;;;;;;;;;;5049229;28;20071;-83
2023/09/20 12:03:03;;;;;;;1.83;1.00;;;;;;;;;;5044079;28;20042;-83
2023/09/20 12:05:28;;;;;;;3.22;1.80;;;;;;;;;;5043769;28;20041;-84
2023/09/20 12:08:01;;;;;;;1.60;1.20;;;;;;;;;;5051622;28;20041;-83
2023/09/20 12:10:29;;;;;;;2.95;1.15;;;;;;;;;;5049359;28;20047;-82
2023/09/20 12:12:55;;;;;;;5.53;2.83;;;;;;;;;;5052919;28;20031;-84
2023/09/20 12:15:23;;;;;;;9.55;8.23;;;;;;;;;;5052796;28;20033;-83
2023/09/20 12:17:55;;;;;;;3.17;1.80;;;;;;;;;;5048942;28;20502;-84
2023/09/20 12:20:24;;;;;;;1.58;1.20;;;;;;;;;;5047162;28;20498;-83
2023/09/20 12:22:50;;;;;;;3.47;1.00;;;;;;;;;;5048735;28;20037;-84
2023/09/20 12:25:16;;;;;;;3.97;1.40;;;;;;;;;;5049696;28;20091;-84
2023/09/20 12:27:43;;;;;;;3.13;2.30;;;;;;;;;;5044302;28;20041;-85
2023/09/20 12:30:12;;;;;;;3.78;2.22;;;;;;;;;;5046574;28;20045;-85
2023/09/20 12:32:41;;;;;;;1.65;1.10;;;;;;;;;;5052238;28;20041;-84
2023/09/20 12:35:10;;;;;;;4.93;1.20;;;;;;;;;;5050223;28;20033;-84
2023/09/20 12:37:36;;;;;;;2.63;1.00;;;;;;;;;;5047707;28;20384;-84
2023/09/20 12:40:08;;;;;;;1.48;1.10;;;;;;;;;;5051038;28;20055;-83
2023/09/20 12:42:34;;;;;;;3.60;1.35;;;;;;;;;;5047949;28;20092;-83
2023/09/20 12:45:05;;;;;;;3.80;1.70;;;;;;;;;;5041552;28;20045;-82
2023/09/20 12:47:34;;;;;;;3.33;1.40;;;;;;;;;;5041099;28;20525;-83
2023/09/20 12:50:01;;;;;;;3.20;1.50;;;;;;;;;;5048989;28;20051;-84
2023/09/20 12:52:27;;;;;;;2.00;1.20;;;;;;;;;;5049101;28;20056;-83
2023/09/20 12:54:52;;;;;;;2.42;1.10;;;;;;;;;;5050165;28;20127;-85
2023/09/20 12:57:17;;;;;;;1.25;1.10;;;;;;;;;;5050552;28;20040;-84
2023/09/20 12:59:43;;;;;;;3.10;1.10;;;;;;;;;;5046429;28;20481;-83
2023/09/20 13:02:08;;;;;;;2.42;1.30;;;;;;;;;;5041618;28;20034;-84
2023/09/20 13:04:34;;;;;;;2.03;1.10;;;;;;;;;;5045884;28;20447;-84
2023/09/20 13:07:00;;;;;;;2.92;1.25;;;;;;;;;;5048518;28;20136;-84
2023/09/20 13:09:27;;;;;;;3.92;1.10;;;;;;;;;;5048520;28;20116;-84
2023/09/20 13:11:53;;;;;;;4.13;1.83;;;;;;;;;;5051967;28;20507;-84
2023/09/20 13:14:19;;;;;;;4.10;1.70;;;;;;;;;;5050960;28;20035;-84
2023/09/20 13:16:49;;;;;;;6.28;1.58;;;;;;;;;;5046260;28;20091;-84
2023/09/20 13:19:18;;;;;;;4.90;1.95;;;;;;;;;;5044269;28;20044;-84
2023/09/20 13:21:44;;;;;;;4.20;1.30;;;;;;;;;;5046705;28;20036;-84
2023/09/20 13:24:09;;;;;;;5.93;2.80;;;;;;;;;;5046767;28;20075;-83
2023/09/20 13:26:37;;;;;;;4.50;2.05;;;;;;;;;;5038249;28;20041;-84
2023/09/20 13:29:03;;;;;;;3.42;2.60;;;;;;;;;;5044679;28;20060;-84
2023/09/20 13:31:28;;;;;;;5.90;2.63;;;;;;;;;;5051465;28;20060;-84
2023/09/20 13:33:54;;;;;;;6.68;3.20;;;;;;;;;;5049374;28;20491;-84
2023/09/20 13:36:20;;;;;;;3.38;1.80;;;;;;;;;;5046067;28;20036;-84
2023/09/20 13:38:46;;;;;;;2.15;1.20;;;;;;;;;;5048868;28;20037;-84
2023/09/20 13:41:12;;;;;;;3.15;1.15;;;;;;;;;;5045185;28;20037;-84
2023/09/20 13:43:38;;;;;;;2.67;1.15;;;;;;;;;;5055879;28;20053;-84
2023/09/20 13:46:03;;;;;;;2.15;0.98;;;;;;;;;;5042287;28;20406;-84
2023/09/20 13:48:29;;;;;;;2.95;1.00;;;;;;;;;;5052708;28;20071;-85
2023/09/20 13:50:54;;;;;;;4.38;1.13;;;;;;;;;;5051532;28;20090;-83
2023/09/20 13:53:20;;;;;;;2.00;1.20;;;;;;;;;;5048318;28;20448;-84
2023/09/20 13:55:46;;;;;;;4.13;1.00;;;;;;;;;;5051894;28;20045;-84
2023/09/20 13:58:13;;;;;;;2.88;1.00;;;;;;;;;;5044544;28;20414;-83
2023/09/20 14:00:39;;;;;;;2.47;1.17;;;;;;;;;;5039400;28;20072;-84
2023/09/20 14:03:05;;;;;;;1.92;1.13;;;;;;;;;;5043817;28;20060;-84
2023/09/20 14:05:30;;;;;;;2.85;1.30;;;;;;;;;;5046488;28;20068;-84
2023/09/20 14:07:56;;;;;;;2.88;1.10;;;;;;;;;;5046967;28;20490;-84
2023/09/20 14:10:23;;;;;;;3.97;1.10;;;;;;;;;;5048152;28;20043;-83
2023/09/20 14:12:49;;;;;;;2.45;1.30;;;;;;;;;;5050695;28;20044;-83
2023/09/20 14:15:19;;;;;;;4.95;3.13;;;;;;;;;;5046540;28;20030;-83
2023/09/20 14:17:49;;;;;;;1.65;1.30;;;;;;;;;;5043235;28;20044;-84
2023/09/20 14:20:18;;;;;;;1.55;1.10;;;;;;;;;;5048973;28;20047;-84
2023/09/20 14:22:45;;;;;;;2.70;1.33;;;;;;;;;;5046021;28;20507;-84
2023/09/20 14:25:11;;;;;;;2.25;1.50;;;;;;;;;;5040554;28;20414;-85
2023/09/20 14:27:41;;;;;;;1.92;1.13;;;;;;;;;;5042580;28;20784;-84
2023/09/20 14:30:10;;;;;;;1.85;1.10;;;;;;;;;;5051231;28;20565;-84
2023/09/20 14:32:38;;;;;;;2.78;1.35;;;;;;;;;;5048003;28;20029;-84
2023/09/20 14:35:07;;;;;;;3.15;1.20;;;;;;;;;;5045631;28;20029;-83
2023/09/20 14:37:34;;;;;;;3.88;1.30;;;;;;;;;;5049114;28;20449;-84
2023/09/20 14:40:00;;;;;;;2.63;1.27;;;;;;;;;;5044195;28;20036;-81
2023/09/20 14:42:27;;;;;;;2.45;1.20;;;;;;;;;;5040978;28;20045;-84
2023/09/20 14:44:53;;;;;;;3.78;1.30;;;;;;;;;;5044930;28;20061;-83
2023/09/20 14:47:20;;;;;;;1.70;1.20;;;;;;;;;;5049814;28;20036;-83
2023/09/20 14:49:46;;;;;;;4.18;1.30;;;;;;;;;;5049319;28;20045;-83
2023/09/20 14:52:12;;;;;;;3.47;1.20;;;;;;;;;;5046165;28;20398;-82
2023/09/20 14:54:38;;;;;;;2.50;1.10;;;;;;;;;;5048667;28;20486;-82
2023/09/20 14:57:04;;;;;;;1.92;1.08;;;;;;;;;;5043965;28;20116;-83
2023/09/20 14:59:29;;;;;;;2.00;1.10;;;;;;;;;;5039967;28;20040;-83
2023/09/20 15:01:55;;;;;;;2.15;1.20;;;;;;;;;;5043733;28;20376;-83
2023/09/20 15:04:22;;;;;;;2.83;1.23;;;;;;;;;;5045680;28;20041;-83
2023/09/20 15:06:47;;;;;;;3.05;1.20;;;;;;;;;;5046133;28;20144;-83
2023/09/20 15:09:15;;;;;;;5.10;1.10;;;;;;;;;;5050921;28;20073;-82
2023/09/20 15:11:44;;;;;;;2.85;1.10;;;;;;;;;;5047482;28;20055;-82
2023/09/20 15:14:10;;;;;;;2.80;1.30;;;;;;;;;;5044374;28;20456;-83
2023/09/20 15:16:37;;;;;;;2.75;1.17;;;;;;;;;;5044953;28;20032;-83
2023/09/20 15:19:03;;;;;;;4.47;1.30;;;;;;;;;;5051458;28;20116;-83
2023/09/20 15:21:28;;;;;;;2.42;1.27;;;;;;;;;;5048233;28;20120;-82
2023/09/20 15:23:54;;;;;;;4.47;1.30;;;;;;;;;;5043014;28;20037;-82
2023/09/20 15:26:21;;;;;;;2.67;1.10;;;;;;;;;;5048435;28;20128;-82